Time;durP1;ratioP1;P1;durP2;ratioP2;P2;SDS_P1;SDS_P2;PMS_P1;PMS_P2;Temp;Humidity;BMP_temperature;BMP_pressure;BME280_temperature;BME280_humidity;BME280_pressure;Samples;Min_cycle;Max_cycle;Signal;HPM_P1;HPM_P2
2023/09/14 00:00:12;;;;;;;5.93;1.90;;;;;;;;;;5031503;28;20028;-74
2023/09/14 00:02:37;;;;;;;5.82;1.92;;;;;;;;;;5029558;28;20022;-73
2023/09/14 00:05:03;;;;;;;5.07;2.03;;;;;;;;;;5031053;28;20812;-73
2023/09/14 00:07:28;;;;;;;4.53;1.63;;;;;;;;;;5020354;28;20258;-73
2023/09/14 00:09:53;;;;;;;3.95;1.60;;;;;;;;;;5027181;28;20033;-70
2023/09/14 00:12:19;;;;;;;8.75;2.65;;;;;;;;;;5027048;28;20017;-70
2023/09/14 00:14:44;;;;;;;6.20;1.70;;;;;;;;;;5027136;28;20032;-69
2023/09/14 00:17:10;;;;;;;3.72;1.50;;;;;;;;;;5026693;28;20029;-69
2023/09/14 00:19:35;;;;;;;3.85;1.80;;;;;;;;;;5022170;28;20020;-69
2023/09/14 00:22:00;;;;;;;5.13;1.92;;;;;;;;;;5028490;28;20028;-69
2023/09/14 00:24:25;;;;;;;7.60;2.20;;;;;;;;;;5029408;28;20540;-69
2023/09/14 00:26:51;;;;;;;8.30;2.15;;;;;;;;;;5031980;28;20021;-69
2023/09/14 00:29:16;;;;;;;5.55;1.98;;;;;;;;;;5030979;28;20014;-70
2023/09/14 00:31:41;;;;;;;6.95;2.10;;;;;;;;;;5031968;28;20017;-69
2023/09/14 00:34:06;;;;;;;4.95;1.70;;;;;;;;;;5031118;28;20021;-70
2023/09/14 00:36:32;;;;;;;10.23;2.40;;;;;;;;;;5031915;28;20629;-69
2023/09/14 00:38:57;;;;;;;5.13;1.65;;;;;;;;;;5031272;28;20096;-71
2023/09/14 00:41:22;;;;;;;5.18;1.88;;;;;;;;;;5031857;28;20033;-70
2023/09/14 00:43:47;;;;;;;6.25;2.22;;;;;;;;;;5033568;28;20018;-69
2023/09/14 00:46:13;;;;;;;10.02;2.45;;;;;;;;;;5031059;28;20365;-69
2023/09/14 00:48:38;;;;;;;6.38;2.17;;;;;;;;;;5028310;28;20021;-68
2023/09/14 00:51:03;;;;;;;5.90;2.15;;;;;;;;;;5024333;28;20551;-71
2023/09/14 00:53:29;;;;;;;11.38;2.78;;;;;;;;;;5028314;28;20021;-71
2023/09/14 00:55:54;;;;;;;7.38;2.50;;;;;;;;;;5023016;28;20009;-69
2023/09/14 00:58:20;;;;;;;6.60;3.13;;;;;;;;;;5024612;28;20113;-71
2023/09/14 01:00:46;;;;;;;10.35;3.60;;;;;;;;;;5029462;28;20094;-69
2023/09/14 01:03:14;;;;;;;7.90;3.38;;;;;;;;;;5022382;28;20473;-70
2023/09/14 01:05:40;;;;;;;9.38;4.05;;;;;;;;;;5029990;28;20017;-70
2023/09/14 01:08:05;;;;;;;9.32;4.38;;;;;;;;;;5023538;28;20097;-74
2023/09/14 01:10:31;;;;;;;15.63;4.50;;;;;;;;;;5025692;28;20049;-70
2023/09/14 01:12:57;;;;;;;15.85;4.70;;;;;;;;;;5026457;28;20018;-69
2023/09/14 01:15:35;;;;;;;17.08;4.90;;;;;;;;;;5011826;28;20017;-70
2023/09/14 01:18:00;;;;;;;7.72;4.18;;;;;;;;;;5026395;28;20047;-70
2023/09/14 01:20:32;;;;;;;9.77;4.45;;;;;;;;;;5031838;28;20654;-71
2023/09/14 01:22:57;;;;;;;8.38;4.20;;;;;;;;;;5031548;28;20026;-70
2023/09/14 01:25:34;;;;;;;15.20;5.10;;;;;;;;;;5024062;28;20389;-71
2023/09/14 01:28:07;;;;;;;11.65;4.05;;;;;;;;;;5009754;28;20275;-72
2023/09/14 01:30:32;;;;;;;8.90;4.05;;;;;;;;;;5031521;28;20096;-69
2023/09/14 01:32:58;;;;;;;7.97;3.80;;;;;;;;;;5026736;28;20461;-68
2023/09/14 01:35:24;;;;;;;8.75;3.70;;;;;;;;;;5027992;28;20048;-70
2023/09/14 01:37:49;;;;;;;14.80;4.25;;;;;;;;;;5025136;28;20033;-68
2023/09/14 01:40:15;;;;;;;7.53;3.33;;;;;;;;;;5025164;28;20010;-70
2023/09/14 01:42:41;;;;;;;11.48;3.60;;;;;;;;;;5008844;28;20032;-72
2023/09/14 01:45:06;;;;;;;9.82;3.83;;;;;;;;;;5025262;28;20468;-67
2023/09/14 01:47:32;;;;;;;13.52;3.05;;;;;;;;;;5028643;28;20033;-66
2023/09/14 01:49:57;;;;;;;6.38;2.83;;;;;;;;;;5027145;28;20053;-70
2023/09/14 01:52:22;;;;;;;11.20;3.50;;;;;;;;;;5029577;28;20108;-69
2023/09/14 01:54:47;;;;;;;9.05;2.85;;;;;;;;;;5020319;28;20014;-68
2023/09/14 01:57:12;;;;;;;8.38;2.90;;;;;;;;;;5026181;28;20045;-69
2023/09/14 01:59:38;;;;;;;9.00;2.70;;;;;;;;;;5030196;28;20026;-69
2023/09/14 02:02:03;;;;;;;7.05;2.80;;;;;;;;;;5027101;28;20487;-70
2023/09/14 02:04:28;;;;;;;10.43;2.70;;;;;;;;;;5021725;28;20039;-69
2023/09/14 02:06:53;;;;;;;11.40;3.03;;;;;;;;;;5026142;28;20009;-70
2023/09/14 02:09:19;;;;;;;5.97;2.40;;;;;;;;;;5002320;28;20028;-70
2023/09/14 02:11:44;;;;;;;7.05;2.58;;;;;;;;;;5023121;28;20103;-69
2023/09/14 02:14:09;;;;;;;7.90;2.60;;;;;;;;;;5025192;28;20009;-72
2023/09/14 02:16:34;;;;;;;8.88;2.63;;;;;;;;;;5023479;28;20067;-67
2023/09/14 02:19:00;;;;;;;5.88;2.40;;;;;;;;;;5024051;28;20041;-68
2023/09/14 02:21:25;;;;;;;6.68;2.85;;;;;;;;;;5012114;28;20405;-69
2023/09/14 02:23:50;;;;;;;10.85;2.90;;;;;;;;;;5022863;28;20397;-73
2023/09/14 02:26:15;;;;;;;13.10;3.03;;;;;;;;;;5027564;28;20578;-71
2023/09/14 02:28:41;;;;;;;11.02;2.85;;;;;;;;;;5022195;28;20101;-70
2023/09/14 02:31:07;;;;;;;6.97;2.88;;;;;;;;;;5024759;28;20009;-73
2023/09/14 02:33:32;;;;;;;10.85;3.28;;;;;;;;;;5025067;28;20040;-70
2023/09/14 02:35:58;;;;;;;9.90;3.03;;;;;;;;;;5026758;28;20425;-70
2023/09/14 02:38:23;;;;;;;8.32;2.45;;;;;;;;;;5004432;28;20033;-69
2023/09/14 02:40:48;;;;;;;7.90;3.05;;;;;;;;;;5024913;28;20112;-70
2023/09/14 02:43:13;;;;;;;13.77;2.97;;;;;;;;;;5025176;28;20025;-67
2023/09/14 02:45:39;;;;;;;12.18;3.65;;;;;;;;;;5024953;28;20018;-69
2023/09/14 02:48:04;;;;;;;11.35;3.30;;;;;;;;;;5018728;28;20049;-69
2023/09/14 02:50:29;;;;;;;9.90;3.13;;;;;;;;;;5015587;28;20038;-70
2023/09/14 02:52:54;;;;;;;7.70;2.75;;;;;;;;;;5023355;28;20089;-68
2023/09/14 02:55:20;;;;;;;8.00;3.10;;;;;;;;;;5020420;28;20014;-71
2023/09/14 02:57:45;;;;;;;6.68;2.65;;;;;;;;;;5023994;28;20018;-70
2023/09/14 03:00:16;;;;;;;10.27;2.60;;;;;;;;;;5026803;28;20013;-69
2023/09/14 03:02:41;;;;;;;9.02;2.90;;;;;;;;;;5022507;28;20029;-71
2023/09/14 03:05:07;;;;;;;8.07;2.42;;;;;;;;;;5024506;28;20384;-70
2023/09/14 03:07:32;;;;;;;15.35;2.58;;;;;;;;;;5021427;28;20388;-69
2023/09/14 03:09:57;;;;;;;6.82;2.83;;;;;;;;;;5021349;28;20025;-73
2023/09/14 03:12:22;;;;;;;9.90;2.65;;;;;;;;;;5021764;28;20026;-67
2023/09/14 03:14:48;;;;;;;11.02;2.75;;;;;;;;;;5025611;28;20021;-68
2023/09/14 03:17:13;;;;;;;7.88;3.03;;;;;;;;;;5020636;28;20045;-68
2023/09/14 03:19:41;;;;;;;9.25;2.63;;;;;;;;;;5024584;28;20540;-67
2023/09/14 03:22:06;;;;;;;8.20;2.17;;;;;;;;;;5020375;28;20487;-69
2023/09/14 03:24:32;;;;;;;8.82;2.47;;;;;;;;;;5022858;28;20033;-68
2023/09/14 03:26:57;;;;;;;12.23;2.65;;;;;;;;;;5026023;28;20013;-71
2023/09/14 03:29:22;;;;;;;8.43;3.10;;;;;;;;;;5021220;28;20120;-70
2023/09/14 03:31:50;;;;;;;11.45;2.55;;;;;;;;;;5024864;28;20646;-67
2023/09/14 03:34:15;;;;;;;10.00;2.92;;;;;;;;;;5019443;28;20088;-70
2023/09/14 03:36:41;;;;;;;10.57;2.53;;;;;;;;;;5023897;28;20490;-72
2023/09/14 03:39:06;;;;;;;10.85;2.35;;;;;;;;;;5025176;28;20017;-69
2023/09/14 03:41:31;;;;;;;6.40;2.03;;;;;;;;;;5023091;28;20017;-68
2023/09/14 03:43:56;;;;;;;9.27;2.25;;;;;;;;;;5025862;28;20032;-71
2023/09/14 03:46:23;;;;;;;10.18;2.40;;;;;;;;;;5024617;28;20506;-68
2023/09/14 03:48:48;;;;;;;9.15;2.50;;;;;;;;;;5026713;28;20026;-69
2023/09/14 03:51:13;;;;;;;9.02;2.40;;;;;;;;;;5020776;28;20049;-70
2023/09/14 03:53:38;;;;;;;11.77;3.13;;;;;;;;;;5024370;28;20013;-71
2023/09/14 03:56:04;;;;;;;10.13;3.17;;;;;;;;;;5021006;28;20029;-71
2023/09/14 03:58:30;;;;;;;10.70;2.95;;;;;;;;;;5029875;28;20056;-71
2023/09/14 04:00:55;;;;;;;15.90;3.30;;;;;;;;;;5032371;28;20017;-71
2023/09/14 04:03:20;;;;;;;5.50;1.90;;;;;;;;;;5033187;28;20395;-66
2023/09/14 04:05:46;;;;;;;12.02;2.50;;;;;;;;;;5028347;28;20508;-69
2023/09/14 04:08:11;;;;;;;9.10;3.05;;;;;;;;;;5028590;28;20025;-70
2023/09/14 04:10:37;;;;;;;11.65;2.78;;;;;;;;;;5028983;28;20018;-70
2023/09/14 04:13:21;;;;;;;8.48;2.42;;;;;;;;;;5029164;28;20022;-70
2023/09/14 04:15:47;;;;;;;8.93;2.30;;;;;;;;;;5024824;28;20485;-71
2023/09/14 04:18:12;;;;;;;9.95;2.30;;;;;;;;;;5026162;28;20079;-71
2023/09/14 04:20:37;;;;;;;8.75;2.33;;;;;;;;;;5028753;28;20104;-70
2023/09/14 04:23:03;;;;;;;8.48;2.63;;;;;;;;;;5031122;28;20104;-67
2023/09/14 04:25:28;;;;;;;6.85;2.22;;;;;;;;;;5024316;28;20072;-70
2023/09/14 04:27:53;;;;;;;9.43;2.40;;;;;;;;;;5029753;28;20021;-69
2023/09/14 04:30:18;;;;;;;7.55;2.65;;;;;;;;;;5024546;28;20017;-68
2023/09/14 04:32:44;;;;;;;10.82;2.22;;;;;;;;;;5028794;28;20021;-68
2023/09/14 04:35:09;;;;;;;9.73;2.65;;;;;;;;;;5028872;28;20022;-68
2023/09/14 04:37:34;;;;;;;14.88;2.47;;;;;;;;;;5021300;28;20025;-71
2023/09/14 04:39:59;;;;;;;7.18;2.38;;;;;;;;;;5011141;28;20075;-69
2023/09/14 04:42:24;;;;;;;6.60;2.25;;;;;;;;;;5031025;28;20021;-71
2023/09/14 04:44:51;;;;;;;9.75;2.72;;;;;;;;;;5031687;28;20017;-67
2023/09/14 04:47:16;;;;;;;9.23;2.50;;;;;;;;;;5032124;28;20365;-69
2023/09/14 04:49:41;;;;;;;12.10;3.10;;;;;;;;;;5026251;28;20501;-67
2023/09/14 04:52:07;;;;;;;12.50;3.03;;;;;;;;;;5032220;23;20061;-69
2023/09/14 04:54:32;;;;;;;9.18;2.30;;;;;;;;;;5007267;28;20086;-72
2023/09/14 04:56:57;;;;;;;13.68;2.70;;;;;;;;;;5010269;28;20045;-68
2023/09/14 04:59:24;;;;;;;12.32;2.35;;;;;;;;;;5010631;28;20022;-72
2023/09/14 05:01:49;;;;;;;10.02;2.03;;;;;;;;;;5011247;28;20026;-68
2023/09/14 05:04:14;;;;;;;6.57;2.42;;;;;;;;;;4997306;28;20033;-73
2023/09/14 05:06:39;;;;;;;14.68;3.22;;;;;;;;;;5010970;28;20036;-69
2023/09/14 05:09:05;;;;;;;16.38;4.90;;;;;;;;;;5010145;28;20114;-71
2023/09/14 05:11:30;;;;;;;15.25;2.67;;;;;;;;;;5010999;28;20032;-70
2023/09/14 05:13:55;;;;;;;11.63;2.88;;;;;;;;;;5010203;28;20461;-70
2023/09/14 05:16:20;;;;;;;9.82;2.35;;;;;;;;;;5006331;28;20033;-69
2023/09/14 05:18:46;;;;;;;9.38;2.50;;;;;;;;;;5008786;28;20038;-66
2023/09/14 05:21:12;;;;;;;6.75;2.55;;;;;;;;;;5009306;28;20037;-70
2023/09/14 05:23:37;;;;;;;7.25;2.67;;;;;;;;;;5008643;28;20036;-68
2023/09/14 05:26:02;;;;;;;11.00;2.42;;;;;;;;;;5008278;28;20022;-68
2023/09/14 05:28:28;;;;;;;13.40;2.88;;;;;;;;;;5009111;28;20022;-69
2023/09/14 05:30:53;;;;;;;16.40;2.90;;;;;;;;;;5008997;28;20026;-68
2023/09/14 05:33:18;;;;;;;16.45;2.90;;;;;;;;;;5009400;28;20021;-69
2023/09/14 05:35:44;;;;;;;13.40;2.97;;;;;;;;;;5003013;28;20110;-71
2023/09/14 05:38:10;;;;;;;14.48;3.08;;;;;;;;;;5008142;28;20025;-71
2023/09/14 05:40:35;;;;;;;10.77;2.53;;;;;;;;;;5009644;28;20021;-70
2023/09/14 05:43:00;;;;;;;12.60;2.40;;;;;;;;;;5014474;28;20025;-73
2023/09/14 05:45:26;;;;;;;12.02;2.97;;;;;;;;;;5010995;28;20017;-71
2023/09/14 05:47:51;;;;;;;18.67;2.55;;;;;;;;;;5010738;28;20026;-72
2023/09/14 05:50:16;;;;;;;6.07;2.25;;;;;;;;;;5010974;28;20018;-69
2023/09/14 05:52:42;;;;;;;13.82;3.05;;;;;;;;;;5009264;28;20040;-69
2023/09/14 05:55:07;;;;;;;8.98;2.78;;;;;;;;;;5008929;28;20596;-69
2023/09/14 05:57:33;;;;;;;10.93;2.67;;;;;;;;;;5009501;28;20048;-71
2023/09/14 05:59:58;;;;;;;9.85;2.45;;;;;;;;;;5009073;28;20097;-71
2023/09/14 06:02:24;;;;;;;12.43;3.05;;;;;;;;;;5009269;28;20046;-70
2023/09/14 06:04:49;;;;;;;13.55;2.60;;;;;;;;;;5008890;28;20041;-71
2023/09/14 06:07:15;;;;;;;13.75;2.63;;;;;;;;;;5009221;28;20025;-69
2023/09/14 06:09:40;;;;;;;8.98;2.50;;;;;;;;;;5009662;28;20018;-72
2023/09/14 06:12:05;;;;;;;10.10;2.60;;;;;;;;;;5007284;28;20010;-69
2023/09/14 06:14:32;;;;;;;10.90;2.55;;;;;;;;;;5009657;28;20017;-71
2023/09/14 06:16:58;;;;;;;12.35;3.05;;;;;;;;;;5009365;28;20054;-71
2023/09/14 06:19:23;;;;;;;11.55;2.70;;;;;;;;;;5009430;28;20033;-70
2023/09/14 06:21:48;;;;;;;7.07;2.05;;;;;;;;;;4989886;28;20180;-72
2023/09/14 06:24:15;;;;;;;13.73;4.05;;;;;;;;;;5007247;28;20032;-71
2023/09/14 06:26:40;;;;;;;13.32;2.65;;;;;;;;;;5008382;28;20028;-72
2023/09/14 06:29:06;;;;;;;13.63;2.50;;;;;;;;;;5009491;28;20018;-71
2023/09/14 06:31:31;;;;;;;10.07;2.55;;;;;;;;;;5001406;28;20042;-71
2023/09/14 06:33:56;;;;;;;6.80;2.38;;;;;;;;;;5008565;28;20017;-69
2023/09/14 06:36:21;;;;;;;14.07;3.22;;;;;;;;;;5008738;28;20097;-71
2023/09/14 06:38:47;;;;;;;12.10;2.25;;;;;;;;;;5009042;28;20513;-71
2023/09/14 06:41:13;;;;;;;12.27;3.22;;;;;;;;;;5009688;28;20489;-70
2023/09/14 06:43:40;;;;;;;12.82;3.15;;;;;;;;;;5004993;28;20152;-71
2023/09/14 06:46:05;;;;;;;20.40;2.70;;;;;;;;;;5003306;28;20105;-70
2023/09/14 06:48:31;;;;;;;13.10;2.85;;;;;;;;;;5001670;28;20086;-70
2023/09/14 06:50:56;;;;;;;23.15;2.30;;;;;;;;;;5001732;28;20057;-67
2023/09/14 06:53:22;;;;;;;12.10;2.95;;;;;;;;;;5000539;28;20022;-71
2023/09/14 06:55:47;;;;;;;9.57;2.90;;;;;;;;;;5002237;28;20021;-69
2023/09/14 06:58:13;;;;;;;7.35;2.30;;;;;;;;;;5002259;28;20458;-69
2023/09/14 07:00:38;;;;;;;11.23;2.70;;;;;;;;;;5000761;28;20021;-69
2023/09/14 07:03:04;;;;;;;9.43;2.38;;;;;;;;;;5000731;28;20368;-71
2023/09/14 07:05:30;;;;;;;9.20;2.63;;;;;;;;;;5001788;28;20026;-70
2023/09/14 07:07:56;;;;;;;9.20;2.55;;;;;;;;;;5002173;28;20141;-67
2023/09/14 07:10:22;;;;;;;9.80;2.33;;;;;;;;;;5001618;28;20409;-70
2023/09/14 07:12:48;;;;;;;10.98;2.50;;;;;;;;;;5000536;28;20100;-69
2023/09/14 07:15:13;;;;;;;20.30;2.53;;;;;;;;;;5001937;28;20085;-71
2023/09/14 07:17:39;;;;;;;12.88;2.70;;;;;;;;;;5002807;28;20052;-70
2023/09/14 07:20:05;;;;;;;7.95;2.20;;;;;;;;;;5001557;28;20018;-68
2023/09/14 07:22:30;;;;;;;10.18;2.30;;;;;;;;;;5001266;28;20068;-70
2023/09/14 07:24:55;;;;;;;15.65;2.75;;;;;;;;;;4999752;28;20026;-67
2023/09/14 07:27:22;;;;;;;14.10;3.08;;;;;;;;;;5001352;28;20073;-68
2023/09/14 07:29:48;;;;;;;17.50;2.60;;;;;;;;;;5001934;28;20148;-69
2023/09/14 07:32:13;;;;;;;16.70;2.85;;;;;;;;;;5001896;28;20436;-67
2023/09/14 07:34:38;;;;;;;18.38;2.92;;;;;;;;;;5001151;28;20180;-70
2023/09/14 07:37:04;;;;;;;10.18;2.22;;;;;;;;;;5003372;28;20659;-70
2023/09/14 07:39:29;;;;;;;9.65;2.53;;;;;;;;;;5005507;28;20038;-71
2023/09/14 07:41:55;;;;;;;8.50;2.30;;;;;;;;;;5006814;28;20107;-67
2023/09/14 07:44:21;;;;;;;12.65;2.72;;;;;;;;;;5009563;28;20064;-69
2023/09/14 07:46:46;;;;;;;9.38;2.80;;;;;;;;;;5007620;28;20014;-69
2023/09/14 07:49:11;;;;;;;11.15;2.47;;;;;;;;;;5007362;28;20049;-67
2023/09/14 07:51:36;;;;;;;14.25;2.55;;;;;;;;;;4989740;28;20033;-68
2023/09/14 07:54:02;;;;;;;16.88;3.10;;;;;;;;;;4989198;28;20076;-67
2023/09/14 07:56:27;;;;;;;12.80;2.95;;;;;;;;;;5008061;28;20026;-69
2023/09/14 07:58:56;;;;;;;14.18;2.67;;;;;;;;;;5008765;28;20018;-66
2023/09/14 08:01:21;;;;;;;14.13;2.78;;;;;;;;;;5008897;28;20072;-66
2023/09/14 08:03:46;;;;;;;14.25;2.85;;;;;;;;;;5008861;28;20681;-69
2023/09/14 08:06:12;;;;;;;9.27;2.30;;;;;;;;;;5008242;28;20022;-67
2023/09/14 08:08:37;;;;;;;9.02;2.83;;;;;;;;;;5009101;28;20128;-69
2023/09/14 08:11:02;;;;;;;13.82;3.95;;;;;;;;;;5008391;28;20481;-67
2023/09/14 08:13:27;;;;;;;12.93;2.60;;;;;;;;;;5008431;28;20018;-69
2023/09/14 08:15:53;;;;;;;12.40;2.88;;;;;;;;;;5008625;28;20068;-70
2023/09/14 08:18:21;;;;;;;10.32;3.20;;;;;;;;;;5007888;28;20036;-70
2023/09/14 08:20:49;;;;;;;15.57;2.97;;;;;;;;;;5009070;28;20056;-70
2023/09/14 08:23:15;;;;;;;10.95;2.85;;;;;;;;;;5008262;28;20041;-65
2023/09/14 08:25:43;;;;;;;15.40;2.50;;;;;;;;;;5007709;28;20080;-68
2023/09/14 08:28:18;;;;;;;11.40;2.97;;;;;;;;;;5008141;28;20033;-70
2023/09/14 08:30:44;;;;;;;7.53;2.75;;;;;;;;;;5007999;28;20018;-68
2023/09/14 08:33:10;;;;;;;11.85;3.00;;;;;;;;;;5007045;28;20022;-69
2023/09/14 08:35:36;;;;;;;15.73;2.80;;;;;;;;;;5008142;28;20018;-66
2023/09/14 08:38:03;;;;;;;11.05;2.72;;;;;;;;;;5009707;28;20168;-69
2023/09/14 08:40:29;;;;;;;18.92;3.20;;;;;;;;;;4994428;28;20620;-68
2023/09/14 08:42:55;;;;;;;9.35;2.88;;;;;;;;;;5013179;28;20025;-70
2023/09/14 08:45:25;;;;;;;11.13;3.10;;;;;;;;;;5011785;28;20025;-69
2023/09/14 08:47:51;;;;;;;9.60;2.95;;;;;;;;;;5013238;28;20014;-70
2023/09/14 08:50:20;;;;;;;9.68;3.15;;;;;;;;;;5012308;28;20025;-68
2023/09/14 08:52:46;;;;;;;9.38;2.55;;;;;;;;;;5013070;28;20136;-68
2023/09/14 08:55:11;;;;;;;14.43;2.90;;;;;;;;;;5012114;28;20073;-70
2023/09/14 08:57:39;;;;;;;13.82;3.30;;;;;;;;;;5013047;28;20022;-67
2023/09/14 09:00:14;;;;;;;8.68;3.22;;;;;;;;;;5011600;28;20033;-68
2023/09/14 09:02:41;;;;;;;15.40;3.65;;;;;;;;;;5013502;28;20021;-68
2023/09/14 09:05:07;;;;;;;12.80;3.30;;;;;;;;;;5012981;28;20037;-69
2023/09/14 09:07:32;;;;;;;9.27;2.90;;;;;;;;;;5013915;28;20080;-71
2023/09/14 09:09:58;;;;;;;16.65;2.92;;;;;;;;;;5012990;28;20022;-67
2023/09/14 09:12:23;;;;;;;10.57;3.35;;;;;;;;;;5012510;28;20033;-68
2023/09/14 09:14:48;;;;;;;19.67;3.50;;;;;;;;;;5012450;28;20136;-67
2023/09/14 09:17:14;;;;;;;14.45;3.17;;;;;;;;;;5012418;28;20048;-71
2023/09/14 09:19:51;;;;;;;10.02;3.60;;;;;;;;;;4995422;28;20506;-69
2023/09/14 09:22:17;;;;;;;10.23;3.05;;;;;;;;;;5010872;28;20026;-66
2023/09/14 09:24:42;;;;;;;12.30;3.47;;;;;;;;;;5012662;28;20025;-69
2023/09/14 09:27:26;;;;;;;7.55;2.72;;;;;;;;;;5012034;28;20104;-68
2023/09/14 09:29:56;;;;;;;13.18;3.00;;;;;;;;;;5011223;28;20096;-68
2023/09/14 09:32:21;;;;;;;18.05;3.63;;;;;;;;;;5012840;28;20064;-69
2023/09/14 09:34:47;;;;;;;6.75;2.47;;;;;;;;;;5012150;28;20440;-70
2023/09/14 09:37:12;;;;;;;10.23;2.42;;;;;;;;;;5012547;28;20018;-67
2023/09/14 09:39:37;;;;;;;9.05;2.38;;;;;;;;;;5012972;28;20093;-69
2023/09/14 09:42:03;;;;;;;6.97;1.90;;;;;;;;;;5011570;28;20021;-68
2023/09/14 09:44:29;;;;;;;10.07;2.40;;;;;;;;;;5014546;28;20030;-65
2023/09/14 09:46:57;;;;;;;11.27;2.92;;;;;;;;;;5012406;28;20017;-69
2023/09/14 09:49:24;;;;;;;8.20;2.72;;;;;;;;;;5011820;28;20030;-69
2023/09/14 09:51:50;;;;;;;12.95;3.22;;;;;;;;;;5012344;28;20448;-67
2023/09/14 09:54:18;;;;;;;10.73;2.90;;;;;;;;;;5011231;28;20025;-70
2023/09/14 09:56:44;;;;;;;10.77;2.72;;;;;;;;;;5005990;28;20010;-70
2023/09/14 09:59:10;;;;;;;15.18;3.00;;;;;;;;;;5010572;28;20164;-67
2023/09/14 10:01:44;;;;;;;10.98;3.05;;;;;;;;;;5011371;28;20044;-70
2023/09/14 10:04:09;;;;;;;9.13;3.17;;;;;;;;;;5012061;28;20034;-67
2023/09/14 10:06:34;;;;;;;10.48;2.78;;;;;;;;;;5011535;28;20026;-70
2023/09/14 10:09:06;;;;;;;9.68;2.67;;;;;;;;;;5013931;28;20033;-68
2023/09/14 10:11:31;;;;;;;13.15;3.58;;;;;;;;;;5014750;28;20040;-67
2023/09/14 10:13:57;;;;;;;12.23;3.35;;;;;;;;;;5014663;28;20022;-70
2023/09/14 10:16:25;;;;;;;11.15;3.22;;;;;;;;;;5014026;28;20046;-70
2023/09/14 10:18:53;;;;;;;11.57;2.90;;;;;;;;;;5012565;28;20009;-68
2023/09/14 10:21:18;;;;;;;12.70;2.77;;;;;;;;;;5005824;28;20030;-69
2023/09/14 10:23:44;;;;;;;10.52;2.88;;;;;;;;;;5012683;28;20260;-68
2023/09/14 10:26:09;;;;;;;10.23;3.85;;;;;;;;;;5011788;28;20018;-70
2023/09/14 10:28:35;;;;;;;10.55;2.83;;;;;;;;;;4994621;28;20176;-69
2023/09/14 10:31:01;;;;;;;10.27;2.80;;;;;;;;;;5012763;28;20390;-67
2023/09/14 10:33:26;;;;;;;12.27;3.03;;;;;;;;;;5011945;28;20025;-71
2023/09/14 10:35:53;;;;;;;8.10;2.45;;;;;;;;;;5009367;28;20014;-70
2023/09/14 10:38:22;;;;;;;5.82;2.40;;;;;;;;;;5009224;28;20133;-71
2023/09/14 10:40:47;;;;;;;;;;;;;;;;;;5009215;28;20018;-71
2023/09/14 10:43:12;;;;;;;8.88;2.20;;;;;;;;;;5011808;28;19912;-69
2023/09/14 10:45:38;;;;;;;6.35;1.80;;;;;;;;;;5008535;28;20457;-70
2023/09/14 10:48:05;;;;;;;8.27;2.65;;;;;;;;;;5008555;28;20022;-69
2023/09/14 10:50:31;;;;;;;8.45;2.60;;;;;;;;;;5007842;28;20022;-68
2023/09/14 10:52:56;;;;;;;10.60;2.08;;;;;;;;;;4991048;28;20022;-71
2023/09/14 10:55:27;;;;;;;6.55;2.10;;;;;;;;;;5007235;28;20551;-70
2023/09/14 10:57:53;;;;;;;7.53;2.17;;;;;;;;;;5008519;28;20108;-69
2023/09/14 11:00:30;;;;;;;5.00;2.00;;;;;;;;;;5008175;28;20117;-69
2023/09/14 11:02:55;;;;;;;6.70;2.00;;;;;;;;;;5007914;28;20025;-70
2023/09/14 11:05:25;;;;;;;5.03;1.90;;;;;;;;;;5007501;28;20364;-70
2023/09/14 11:07:55;;;;;;;12.43;2.47;;;;;;;;;;4990015;28;20018;-71
2023/09/14 11:10:21;;;;;;;9.77;2.78;;;;;;;;;;5003721;28;20022;-70
2023/09/14 11:12:46;;;;;;;10.15;2.50;;;;;;;;;;5008145;28;20021;-70
2023/09/14 11:15:14;;;;;;;8.35;2.33;;;;;;;;;;5005120;28;20381;-70
2023/09/14 11:17:43;;;;;;;12.45;3.22;;;;;;;;;;5008076;28;20018;-69
2023/09/14 11:20:28;;;;;;;6.80;2.35;;;;;;;;;;5007590;28;20022;-70
2023/09/14 11:23:02;;;;;;;9.70;2.30;;;;;;;;;;5006906;28;20018;-71
2023/09/14 11:25:36;;;;;;;8.13;2.22;;;;;;;;;;5007588;28;20021;-70
2023/09/14 11:28:01;;;;;;;7.00;2.20;;;;;;;;;;5007258;28;20045;-70
2023/09/14 11:30:27;;;;;;;12.10;3.53;;;;;;;;;;5007608;28;20342;-71
2023/09/14 11:32:56;;;;;;;9.15;3.28;;;;;;;;;;5008222;28;20025;-70
2023/09/14 11:35:32;;;;;;;5.45;2.15;;;;;;;;;;4989969;28;20499;-69
2023/09/14 11:37:59;;;;;;;6.88;2.38;;;;;;;;;;5003590;28;20037;-70
2023/09/14 11:40:28;;;;;;;8.32;2.40;;;;;;;;;;5007399;28;20022;-65
2023/09/14 11:43:21;;;;;;;9.23;2.97;;;;;;;;;;5010693;28;20499;-68
2023/09/14 11:45:47;;;;;;;5.78;2.10;;;;;;;;;;5005095;28;20029;-67
2023/09/14 11:48:13;;;;;;;5.93;1.88;;;;;;;;;;5007314;28;20013;-69
2023/09/14 11:50:40;;;;;;;7.95;2.17;;;;;;;;;;5007332;28;20025;-66
2023/09/14 11:53:07;;;;;;;7.38;2.40;;;;;;;;;;5002319;28;20022;-70
2023/09/14 11:55:33;;;;;;;8.05;2.00;;;;;;;;;;4999740;28;20048;-70
2023/09/14 11:57:58;;;;;;;10.00;2.20;;;;;;;;;;4999627;28;20026;-66
2023/09/14 12:00:24;;;;;;;6.70;2.00;;;;;;;;;;5001891;28;20021;-71
2023/09/14 12:02:49;;;;;;;11.45;2.40;;;;;;;;;;5008070;28;20010;-68
2023/09/14 12:05:15;;;;;;;5.53;2.08;;;;;;;;;;5003000;28;20037;-67
2023/09/14 12:07:40;;;;;;;8.73;2.05;;;;;;;;;;4996868;28;20499;-70
2023/09/14 12:10:18;;;;;;;8.27;2.20;;;;;;;;;;5001186;28;20014;-69
2023/09/14 12:12:43;;;;;;;6.90;2.30;;;;;;;;;;4998500;28;20022;-71
2023/09/14 12:15:16;;;;;;;7.97;2.28;;;;;;;;;;5000648;28;20397;-67
2023/09/14 12:17:41;;;;;;;11.40;2.60;;;;;;;;;;5002142;28;20144;-70
2023/09/14 12:20:11;;;;;;;7.88;1.90;;;;;;;;;;5004880;28;20208;-68
2023/09/14 12:22:36;;;;;;;6.65;2.30;;;;;;;;;;5005113;28;20405;-70
2023/09/14 12:25:03;;;;;;;8.27;2.38;;;;;;;;;;5006987;28;20025;-70
2023/09/14 12:27:29;;;;;;;9.07;2.17;;;;;;;;;;5005759;28;20109;-71
2023/09/14 12:29:54;;;;;;;8.05;2.17;;;;;;;;;;5005417;28;20538;-67
2023/09/14 12:32:19;;;;;;;7.80;1.85;;;;;;;;;;5004203;28;20036;-68
2023/09/14 12:34:45;;;;;;;10.02;2.97;;;;;;;;;;5003340;28;20056;-69
2023/09/14 12:37:10;;;;;;;6.75;1.75;;;;;;;;;;5004974;28;20025;-68
2023/09/14 12:39:36;;;;;;;7.47;2.33;;;;;;;;;;5005574;28;20022;-69
2023/09/14 12:42:02;;;;;;;7.85;2.88;;;;;;;;;;5004672;28;20022;-69
2023/09/14 12:44:27;;;;;;;8.63;2.30;;;;;;;;;;5007344;28;20052;-70
2023/09/14 12:46:53;;;;;;;6.57;2.25;;;;;;;;;;5012204;28;20048;-69
2023/09/14 12:49:18;;;;;;;8.10;1.98;;;;;;;;;;5012276;28;20022;-70
2023/09/14 12:51:47;;;;;;;14.52;2.28;;;;;;;;;;5011737;28;20109;-70
2023/09/14 12:54:13;;;;;;;7.15;2.35;;;;;;;;;;5012157;28;20014;-67
2023/09/14 12:56:41;;;;;;;5.53;1.95;;;;;;;;;;5012341;28;20472;-70
2023/09/14 12:59:06;;;;;;;27.17;2.53;;;;;;;;;;5012072;28;20020;-70
2023/09/14 13:01:33;;;;;;;10.10;3.28;;;;;;;;;;5008990;28;20046;-69
2023/09/14 13:03:58;;;;;;;9.48;2.22;;;;;;;;;;5010880;28;20191;-67
2023/09/14 13:06:23;;;;;;;6.07;2.35;;;;;;;;;;5011841;28;20529;-68
2023/09/14 13:08:51;;;;;;;6.53;2.60;;;;;;;;;;5012788;28;20018;-69
2023/09/14 13:11:20;;;;;;;7.07;2.00;;;;;;;;;;5013643;28;20110;-67
2023/09/14 13:13:46;;;;;;;6.57;2.00;;;;;;;;;;5012708;28;20038;-70
2023/09/14 13:16:14;;;;;;;5.40;2.20;;;;;;;;;;5012082;28;20048;-70
2023/09/14 13:18:39;;;;;;;5.28;2.15;;;;;;;;;;5012321;28;20052;-70
2023/09/14 13:21:07;;;;;;;8.48;2.22;;;;;;;;;;5010028;28;20057;-69
2023/09/14 13:23:33;;;;;;;5.25;2.35;;;;;;;;;;4992681;28;20085;-69
2023/09/14 13:25:58;;;;;;;6.17;2.03;;;;;;;;;;5009233;28;20499;-67
2023/09/14 13:28:24;;;;;;;8.15;2.58;;;;;;;;;;5009749;28;20426;-70
2023/09/14 13:30:50;;;;;;;5.90;2.10;;;;;;;;;;5010646;28;20103;-70
2023/09/14 13:33:16;;;;;;;6.75;2.08;;;;;;;;;;5009918;28;20420;-70
2023/09/14 13:35:41;;;;;;;10.70;2.45;;;;;;;;;;5009959;28;20014;-67
2023/09/14 13:38:08;;;;;;;7.68;2.20;;;;;;;;;;5009900;28;20025;-69
2023/09/14 13:40:33;;;;;;;7.60;2.00;;;;;;;;;;5003169;28;20029;-71
2023/09/14 13:42:59;;;;;;;5.85;2.35;;;;;;;;;;5009947;28;20088;-69
2023/09/14 13:45:25;;;;;;;7.88;2.50;;;;;;;;;;5003684;28;20408;-70
2023/09/14 13:47:51;;;;;;;7.03;2.72;;;;;;;;;;5001419;28;20121;-67
2023/09/14 13:50:17;;;;;;;6.25;2.17;;;;;;;;;;5003490;28;20014;-69
2023/09/14 13:52:43;;;;;;;10.20;2.58;;;;;;;;;;4988984;28;20046;-71
2023/09/14 13:55:09;;;;;;;6.88;2.03;;;;;;;;;;5005609;28;20495;-67
2023/09/14 13:57:35;;;;;;;7.75;2.30;;;;;;;;;;5008436;28;20022;-69
2023/09/14 14:00:04;;;;;;;8.52;2.63;;;;;;;;;;5000370;28;20459;-72
2023/09/14 14:02:30;;;;;;;8.00;2.40;;;;;;;;;;5002384;28;20033;-69
2023/09/14 14:04:55;;;;;;;14.10;2.40;;;;;;;;;;5000870;28;20022;-71
2023/09/14 14:07:20;;;;;;;15.73;2.30;;;;;;;;;;5001675;28;20093;-69
2023/09/14 14:09:45;;;;;;;7.40;1.98;;;;;;;;;;5002198;28;20248;-70
2023/09/14 14:12:10;;;;;;;9.67;2.87;;;;;;;;;;5001542;28;20108;-69
2023/09/14 14:14:36;;;;;;;6.55;2.15;;;;;;;;;;5001486;28;20736;-69
2023/09/14 14:17:02;;;;;;;11.13;2.78;;;;;;;;;;4999700;28;20083;-69
2023/09/14 14:19:27;;;;;;;6.85;2.47;;;;;;;;;;5001549;28;20049;-67
2023/09/14 14:21:52;;;;;;;6.65;2.33;;;;;;;;;;5001627;28;20404;-69
2023/09/14 14:24:17;;;;;;;5.13;2.50;;;;;;;;;;5008531;28;20033;-68
2023/09/14 14:26:43;;;;;;;6.13;2.72;;;;;;;;;;5000547;28;21292;-70
2023/09/14 14:29:11;;;;;;;9.70;2.90;;;;;;;;;;5001570;28;20053;-69
2023/09/14 14:31:36;;;;;;;12.63;2.47;;;;;;;;;;5001700;28;20065;-68